sensor_id;sensor_type;location;lat;lon;timestamp;pressure;altitude;pressure_sealevel;temperature;humidity
3464;BME280;3551;41.578;24.706;2023-05-02T00:01:46;91713.31;;;9.48;100.00
3464;BME280;3551;41.578;24.706;2023-05-02T00:04:13;91700.75;;;9.48;100.00
3464;BME280;3551;41.578;24.706;2023-05-02T00:06:39;91709.13;;;9.47;100.00
3464;BME280;3551;41.578;24.706;2023-05-02T00:09:07;91699.19;;;9.44;100.00
3464;BME280;3551;41.578;24.706;2023-05-02T00:11:34;91701.50;;;9.49;100.00
3464;BME280;3551;41.578;24.706;2023-05-02T00:14:02;91702.53;;;9.34;100.00
3464;BME280;3551;41.578;24.706;2023-05-02T00:16:29;91701.22;;;9.14;100.00
3464;BME280;3551;41.578;24.706;2023-05-02T00:18:56;91705.84;;;8.76;100.00
3464;BME280;3551;41.578;24.706;2023-05-02T00:21:22;91707.75;;;8.72;100.00
3464;BME280;3551;41.578;24.706;2023-05-02T00:23:49;91707.97;;;8.57;100.00
3464;BME280;3551;41.578;24.706;2023-05-02T00:26:16;91714.16;;;8.68;100.00
3464;BME280;3551;41.578;24.706;2023-05-02T00:28:43;91715.88;;;8.49;100.00
3464;BME280;3551;41.578;24.706;2023-05-02T00:31:11;91714.69;;;8.47;100.00
3464;BME280;3551;41.578;24.706;2023-05-02T00:33:37;91709.13;;;8.59;100.00
3464;BME280;3551;41.578;24.706;2023-05-02T00:36:10;91720.72;;;8.77;100.00
3464;BME280;3551;41.578;24.706;2023-05-02T00:38:40;91717.22;;;9.10;100.00
3464;BME280;3551;41.578;24.706;2023-05-02T00:41:06;91715.41;;;9.21;100.00
3464;BME280;3551;41.578;24.706;2023-05-02T00:43:33;91720.81;;;8.88;100.00
3464;BME280;3551;41.578;24.706;2023-05-02T00:46:00;91720.72;;;8.77;100.00
3464;BME280;3551;41.578;24.706;2023-05-02T00:48:28;91720.94;;;8.62;100.00
3464;BME280;3551;41.578;24.706;2023-05-02T00:50:56;91719.47;;;8.68;100.00
3464;BME280;3551;41.578;24.706;2023-05-02T00:53:22;91724.59;;;8.83;100.00
3464;BME280;3551;41.578;24.706;2023-05-02T00:55:49;91725.03;;;8.89;100.00
3464;BME280;3551;41.578;24.706;2023-05-02T00:58:18;91727.13;;;8.69;100.00
3464;BME280;3551;41.578;24.706;2023-05-02T01:00:49;91731.50;;;8.51;100.00
3464;BME280;3551;41.578;24.706;2023-05-02T01:03:23;91724.63;;;8.17;100.00
3464;BME280;3551;41.578;24.706;2023-05-02T01:05:56;91719.97;;;8.43;100.00
3464;BME280;3551;41.578;24.706;2023-05-02T01:08:27;91713.69;;;8.59;100.00
3464;BME280;3551;41.578;24.706;2023-05-02T01:10:59;91720.34;;;8.75;100.00
3464;BME280;3551;41.578;24.706;2023-05-02T01:13:31;91717.84;;;8.56;100.00
3464;BME280;3551;41.578;24.706;2023-05-02T01:15:58;91721.72;;;8.62;100.00
3464;BME280;3551;41.578;24.706;2023-05-02T01:18:27;91728.31;;;8.38;100.00
3464;BME280;3551;41.578;24.706;2023-05-02T01:21:00;91725.16;;;8.63;100.00
3464;BME280;3551;41.578;24.706;2023-05-02T01:23:30;91720.16;;;8.58;100.00
3464;BME280;3551;41.578;24.706;2023-05-02T01:26:01;91725.31;;;8.40;100.00
3464;BME280;3551;41.578;24.706;2023-05-02T01:28:34;91724.25;;;8.48;100.00
3464;BME280;3551;41.578;24.706;2023-05-02T01:31:05;91716.09;;;8.34;100.00
3464;BME280;3551;41.578;24.706;2023-05-02T01:33:32;91715.75;;;8.72;100.00
3464;BME280;3551;41.578;24.706;2023-05-02T01:36:00;91713.50;;;8.78;100.00
3464;BME280;3551;41.578;24.706;2023-05-02T01:38:29;91714.25;;;8.75;100.00
3464;BME280;3551;41.578;24.706;2023-05-02T01:40:56;91710.56;;;8.20;100.00
3464;BME280;3551;41.578;24.706;2023-05-02T01:43:27;91712.28;;;8.35;100.00
3464;BME280;3551;41.578;24.706;2023-05-02T01:45:55;91713.00;;;8.28;100.00
3464;BME280;3551;41.578;24.706;2023-05-02T01:48:24;91713.44;;;8.04;100.00
3464;BME280;3551;41.578;24.706;2023-05-02T01:50:52;91717.81;;;8.19;100.00
3464;BME280;3551;41.578;24.706;2023-05-02T01:53:20;91714.75;;;8.21;100.00
3464;BME280;3551;41.578;24.706;2023-05-02T01:55:48;91709.09;;;8.22;100.00
3464;BME280;3551;41.578;24.706;2023-05-02T01:58:15;91705.63;;;8.52;100.00
3464;BME280;3551;41.578;24.706;2023-05-02T02:00:42;91709.94;;;8.63;100.00
3464;BME280;3551;41.578;24.706;2023-05-02T02:03:10;91711.19;;;8.76;100.00
3464;BME280;3551;41.578;24.706;2023-05-02T02:05:39;91708.88;;;8.71;100.00
3464;BME280;3551;41.578;24.706;2023-05-02T02:08:06;91709.97;;;8.67;100.00
3464;BME280;3551;41.578;24.706;2023-05-02T02:10:34;91710.06;;;8.77;100.00
3464;BME280;3551;41.578;24.706;2023-05-02T02:13:03;91711.50;;;8.68;100.00
3464;BME280;3551;41.578;24.706;2023-05-02T02:15:33;91713.00;;;8.65;100.00
3464;BME280;3551;41.578;24.706;2023-05-02T02:18:01;91717.69;;;8.42;100.00
3464;BME280;3551;41.578;24.706;2023-05-02T02:20:28;91712.41;;;8.45;100.00
3464;BME280;3551;41.578;24.706;2023-05-02T02:22:58;91718.88;;;8.44;100.00
3464;BME280;3551;41.578;24.706;2023-05-02T02:25:26;91717.31;;;8.43;100.00
3464;BME280;3551;41.578;24.706;2023-05-02T02:27:52;91714.09;;;8.27;100.00
3464;BME280;3551;41.578;24.706;2023-05-02T02:30:19;91718.09;;;8.44;100.00
3464;BME280;3551;41.578;24.706;2023-05-02T02:32:46;91711.13;;;8.32;100.00
3464;BME280;3551;41.578;24.706;2023-05-02T02:35:13;91710.53;;;8.16;100.00
3464;BME280;3551;41.578;24.706;2023-05-02T02:37:40;91709.53;;;7.98;100.00
3464;BME280;3551;41.578;24.706;2023-05-02T02:40:11;91715.19;;;8.23;100.00
3464;BME280;3551;41.578;24.706;2023-05-02T02:42:42;91719.56;;;8.08;100.00
3464;BME280;3551;41.578;24.706;2023-05-02T02:45:17;91716.22;;;8.15;100.00
3464;BME280;3551;41.578;24.706;2023-05-02T02:47:47;91710.50;;;7.83;100.00
3464;BME280;3551;41.578;24.706;2023-05-02T02:50:18;91709.63;;;7.75;100.00
3464;BME280;3551;41.578;24.706;2023-05-02T02:52:47;91711.72;;;7.89;100.00
3464;BME280;3551;41.578;24.706;2023-05-02T02:55:19;91717.97;;;7.74;100.00
3464;BME280;3551;41.578;24.706;2023-05-02T02:57:50;91713.53;;;7.81;100.00
3464;BME280;3551;41.578;24.706;2023-05-02T03:00:21;91714.59;;;7.77;100.00
3464;BME280;3551;41.578;24.706;2023-05-02T03:02:50;91708.28;;;7.88;100.00
3464;BME280;3551;41.578;24.706;2023-05-02T03:05:17;91708.28;;;7.88;100.00
3464;BME280;3551;41.578;24.706;2023-05-02T03:07:44;91717.06;;;7.63;100.00
3464;BME280;3551;41.578;24.706;2023-05-02T03:10:11;91714.22;;;7.49;100.00
3464;BME280;3551;41.578;24.706;2023-05-02T03:12:39;91717.03;;;7.89;100.00
3464;BME280;3551;41.578;24.706;2023-05-02T03:15:10;91713.91;;;7.83;100.00
3464;BME280;3551;41.578;24.706;2023-05-02T03:17:40;91715.03;;;7.82;100.00
3464;BME280;3551;41.578;24.706;2023-05-02T03:20:06;91719.06;;;7.99;100.00
3464;BME280;3551;41.578;24.706;2023-05-02T03:22:33;91721.25;;;7.90;100.00
3464;BME280;3551;41.578;24.706;2023-05-02T03:25:00;91723.50;;;7.88;100.00
3464;BME280;3551;41.578;24.706;2023-05-02T03:27:27;91729.22;;;7.90;100.00
3464;BME280;3551;41.578;24.706;2023-05-02T03:29:55;91729.28;;;7.93;100.00
3464;BME280;3551;41.578;24.706;2023-05-02T03:32:21;91733.53;;;7.72;100.00
3464;BME280;3551;41.578;24.706;2023-05-02T03:34:48;91732.81;;;7.75;100.00
3464;BME280;3551;41.578;24.706;2023-05-02T03:37:15;91738.53;;;7.73;100.00
3464;BME280;3551;41.578;24.706;2023-05-02T03:39:41;91743.06;;;7.73;100.00
3464;BME280;3551;41.578;24.706;2023-05-02T03:42:09;91749.63;;;7.79;100.00
3464;BME280;3551;41.578;24.706;2023-05-02T03:44:36;91742.66;;;7.71;100.00
3464;BME280;3551;41.578;24.706;2023-05-02T03:47:04;91749.44;;;7.94;100.00
3464;BME280;3551;41.578;24.706;2023-05-02T03:49:32;91759.31;;;7.94;100.00
3464;BME280;3551;41.578;24.706;2023-05-02T03:52:00;91753.38;;;8.04;100.00
3464;BME280;3551;41.578;24.706;2023-05-02T03:54:31;91762.53;;;8.07;100.00
3464;BME280;3551;41.578;24.706;2023-05-02T03:56:58;91766.09;;;7.62;100.00
3464;BME280;3551;41.578;24.706;2023-05-02T03:59:25;91754.44;;;7.21;100.00
3464;BME280;3551;41.578;24.706;2023-05-02T04:01:53;91755.94;;;7.41;100.00
3464;BME280;3551;41.578;24.706;2023-05-02T04:04:21;91769.25;;;7.71;100.00
3464;BME280;3551;41.578;24.706;2023-05-02T04:06:47;91765.38;;;7.65;100.00
3464;BME280;3551;41.578;24.706;2023-05-02T04:09:14;91769.63;;;7.69;100.00
3464;BME280;3551;41.578;24.706;2023-05-02T04:11:41;91767.31;;;7.68;100.00
3464;BME280;3551;41.578;24.706;2023-05-02T04:14:07;91773.66;;;7.86;100.00
3464;BME280;3551;41.578;24.706;2023-05-02T04:16:34;91776.19;;;7.75;100.00
3464;BME280;3551;41.578;24.706;2023-05-02T04:19:01;91770.41;;;7.70;100.00
3464;BME280;3551;41.578;24.706;2023-05-02T04:21:29;91769.06;;;7.83;100.00
3464;BME280;3551;41.578;24.706;2023-05-02T04:23:56;91765.53;;;8.02;100.00
3464;BME280;3551;41.578;24.706;2023-05-02T04:26:22;91776.06;;;7.94;100.00
3464;BME280;3551;41.578;24.706;2023-05-02T04:28:49;91767.88;;;8.07;100.00
3464;BME280;3551;41.578;24.706;2023-05-02T04:31:16;91771.06;;;8.19;100.00
3464;BME280;3551;41.578;24.706;2023-05-02T04:33:43;91779.31;;;8.37;100.00
3464;BME280;3551;41.578;24.706;2023-05-02T04:36:09;91779.78;;;8.16;100.00
3464;BME280;3551;41.578;24.706;2023-05-02T04:38:37;91784.56;;;8.04;100.00
3464;BME280;3551;41.578;24.706;2023-05-02T04:41:05;91774.97;;;8.25;100.00
3464;BME280;3551;41.578;24.706;2023-05-02T04:43:31;91783.25;;;8.20;100.00
3464;BME280;3551;41.578;24.706;2023-05-02T04:45:58;91783.03;;;8.29;100.00
3464;BME280;3551;41.578;24.706;2023-05-02T04:48:25;91783.63;;;8.19;100.00
3464;BME280;3551;41.578;24.706;2023-05-02T04:50:52;91784.03;;;8.51;100.00
3464;BME280;3551;41.578;24.706;2023-05-02T04:53:19;91783.56;;;8.41;100.00
3464;BME280;3551;41.578;24.706;2023-05-02T04:55:48;91781.00;;;8.22;100.00
3464;BME280;3551;41.578;24.706;2023-05-02T04:58:14;91786.81;;;8.58;100.00
3464;BME280;3551;41.578;24.706;2023-05-02T05:00:41;91778.75;;;8.91;100.00
3464;BME280;3551;41.578;24.706;2023-05-02T05:03:08;91787.78;;;9.16;100.00
3464;BME280;3551;41.578;24.706;2023-05-02T05:05:35;91778.59;;;9.14;100.00
3464;BME280;3551;41.578;24.706;2023-05-02T05:08:02;91780.47;;;9.53;100.00
3464;BME280;3551;41.578;24.706;2023-05-02T05:10:28;91784.84;;;9.76;100.00
3464;BME280;3551;41.578;24.706;2023-05-02T05:12:56;91778.28;;;9.66;100.00
3464;BME280;3551;41.578;24.706;2023-05-02T05:15:23;91777.13;;;10.18;100.00
3464;BME280;3551;41.578;24.706;2023-05-02T05:17:51;91780.66;;;10.33;100.00
3464;BME280;3551;41.578;24.706;2023-05-02T05:20:18;91781.63;;;10.93;100.00
3464;BME280;3551;41.578;24.706;2023-05-02T05:22:45;91779.41;;;11.45;100.00
3464;BME280;3551;41.578;24.706;2023-05-02T05:25:11;91777.94;;;11.93;100.00
3464;BME280;3551;41.578;24.706;2023-05-02T05:27:39;91781.00;;;11.95;100.00
3464;BME280;3551;41.578;24.706;2023-05-02T05:30:08;91785.47;;;12.48;100.00
3464;BME280;3551;41.578;24.706;2023-05-02T05:32:35;91782.03;;;12.54;100.00
3464;BME280;3551;41.578;24.706;2023-05-02T05:35:06;91780.41;;;12.71;100.00
3464;BME280;3551;41.578;24.706;2023-05-02T05:37:54;91782.56;;;13.11;100.00
3464;BME280;3551;41.578;24.706;2023-05-02T05:40:21;91781.56;;;13.53;100.00
3464;BME280;3551;41.578;24.706;2023-05-02T05:42:48;91781.78;;;13.73;100.00
3464;BME280;3551;41.578;24.706;2023-05-02T05:45:16;91790.06;;;13.92;98.78
3464;BME280;3551;41.578;24.706;2023-05-02T05:47:43;91792.41;;;13.39;96.59
3464;BME280;3551;41.578;24.706;2023-05-02T05:50:10;91785.47;;;13.93;98.77
3464;BME280;3551;41.578;24.706;2023-05-02T05:52:37;91780.75;;;14.04;97.63
3464;BME280;3551;41.578;24.706;2023-05-02T05:55:04;91784.44;;;13.76;99.71
3464;BME280;3551;41.578;24.706;2023-05-02T05:57:31;91788.81;;;13.56;100.00
3464;BME280;3551;41.578;24.706;2023-05-02T05:59:57;91792.50;;;14.24;100.00
3464;BME280;3551;41.578;24.706;2023-05-02T06:02:25;91796.28;;;14.30;96.09
3464;BME280;3551;41.578;24.706;2023-05-02T06:04:52;91800.50;;;14.31;100.00
3464;BME280;3551;41.578;24.706;2023-05-02T06:07:19;91793.13;;;14.80;96.55
3464;BME280;3551;41.578;24.706;2023-05-02T06:09:45;91803.63;;;14.67;93.56
3464;BME280;3551;41.578;24.706;2023-05-02T06:12:13;91800.34;;;14.86;96.50
3464;BME280;3551;41.578;24.706;2023-05-02T06:14:41;91791.28;;;15.03;91.52
3464;BME280;3551;41.578;24.706;2023-05-02T06:17:07;91799.00;;;15.01;94.58
3464;BME280;3551;41.578;24.706;2023-05-02T06:19:35;91796.72;;;15.30;93.42
3464;BME280;3551;41.578;24.706;2023-05-02T06:22:02;91800.19;;;15.61;92.84
3464;BME280;3551;41.578;24.706;2023-05-02T06:24:29;91798.31;;;15.85;88.12
3464;BME280;3551;41.578;24.706;2023-05-02T06:26:55;91792.47;;;15.86;86.93
3464;BME280;3551;41.578;24.706;2023-05-02T06:29:22;91800.47;;;15.93;90.35
3464;BME280;3551;41.578;24.706;2023-05-02T06:31:49;91793.16;;;16.17;86.19
3464;BME280;3551;41.578;24.706;2023-05-02T06:34:16;91794.13;;;16.50;77.57
3464;BME280;3551;41.578;24.706;2023-05-02T06:36:44;91798.56;;;16.83;69.82
3464;BME280;3551;41.578;24.706;2023-05-02T06:39:10;91802.19;;;17.16;63.13
3464;BME280;3551;41.578;24.706;2023-05-02T06:41:37;91799.97;;;17.30;61.71
3464;BME280;3551;41.578;24.706;2023-05-02T06:44:04;91792.13;;;17.56;57.25
3464;BME280;3551;41.578;24.706;2023-05-02T06:46:31;91794.44;;;17.73;55.30
3464;BME280;3551;41.578;24.706;2023-05-02T06:48:58;91798.94;;;17.80;53.97
3464;BME280;3551;41.578;24.706;2023-05-02T06:51:28;91802.81;;;17.95;52.46
3464;BME280;3551;41.578;24.706;2023-05-02T06:54:14;91799.53;;;17.87;54.79
3464;BME280;3551;41.578;24.706;2023-05-02T06:56:44;91795.38;;;17.83;49.71
3464;BME280;3551;41.578;24.706;2023-05-02T06:59:15;91789.81;;;18.22;53.87
3464;BME280;3551;41.578;24.706;2023-05-02T07:01:42;91799.53;;;18.36;52.61
3464;BME280;3551;41.578;24.706;2023-05-02T07:04:20;91797.81;;;18.42;50.89
3464;BME280;3551;41.578;24.706;2023-05-02T07:06:50;91796.22;;;18.28;49.40
3464;BME280;3551;41.578;24.706;2023-05-02T07:09:39;91798.16;;;18.76;49.75
3464;BME280;3551;41.578;24.706;2023-05-02T07:12:09;91798.84;;;18.16;43.99
3464;BME280;3551;41.578;24.706;2023-05-02T07:14:35;91791.09;;;18.18;46.97
3464;BME280;3551;41.578;24.706;2023-05-02T07:17:02;91792.09;;;18.40;42.93
3464;BME280;3551;41.578;24.706;2023-05-02T07:19:29;91798.63;;;18.26;40.60
3464;BME280;3551;41.578;24.706;2023-05-02T07:21:56;91802.22;;;18.36;41.99
3464;BME280;3551;41.578;24.706;2023-05-02T07:24:23;91801.28;;;17.78;41.33
3464;BME280;3551;41.578;24.706;2023-05-02T07:26:52;91797.50;;;17.91;42.24
3464;BME280;3551;41.578;24.706;2023-05-02T07:29:25;91800.47;;;18.62;43.73
3464;BME280;3551;41.578;24.706;2023-05-02T07:31:52;91796.47;;;17.85;41.33
3464;BME280;3551;41.578;24.706;2023-05-02T07:34:23;91801.63;;;17.96;40.22
3464;BME280;3551;41.578;24.706;2023-05-02T07:36:50;91803.91;;;17.81;39.01
3464;BME280;3551;41.578;24.706;2023-05-02T07:39:17;91799.25;;;17.66;40.77
3464;BME280;3551;41.578;24.706;2023-05-02T07:41:44;91801.50;;;17.67;39.82
3464;BME280;3551;41.578;24.706;2023-05-02T07:44:12;91796.66;;;17.94;41.77
3464;BME280;3551;41.578;24.706;2023-05-02T07:46:39;91799.78;;;18.41;40.14
3464;BME280;3551;41.578;24.706;2023-05-02T07:49:09;91805.63;;;18.72;40.67
3464;BME280;3551;41.578;24.706;2023-05-02T07:51:35;91803.84;;;18.17;37.48
3464;BME280;3551;41.578;24.706;2023-05-02T07:54:13;91805.63;;;18.24;37.91
3464;BME280;3551;41.578;24.706;2023-05-02T07:56:40;91814.91;;;18.39;36.55
3464;BME280;3551;41.578;24.706;2023-05-02T07:59:10;91806.34;;;17.76;36.24
3464;BME280;3551;41.578;24.706;2023-05-02T08:01:38;91802.91;;;17.91;35.74
3464;BME280;3551;41.578;24.706;2023-05-02T08:04:05;91809.59;;;18.19;37.29
3464;BME280;3551;41.578;24.706;2023-05-02T08:06:32;91805.09;;;17.80;35.31
3464;BME280;3551;41.578;24.706;2023-05-02T08:08:59;91803.06;;;17.84;36.49
3464;BME280;3551;41.578;24.706;2023-05-02T08:11:26;91813.47;;;17.86;35.28
3464;BME280;3551;41.578;24.706;2023-05-02T08:13:53;91802.94;;;17.72;36.44
3464;BME280;3551;41.578;24.706;2023-05-02T08:16:23;91798.44;;;17.29;36.88
3464;BME280;3551;41.578;24.706;2023-05-02T08:18:52;91806.06;;;16.95;37.09
3464;BME280;3551;41.578;24.706;2023-05-02T08:21:20;91805.38;;;17.30;35.86
3464;BME280;3551;41.578;24.706;2023-05-02T08:23:46;91799.09;;;17.53;35.88
3464;BME280;3551;41.578;24.706;2023-05-02T08:26:13;91804.66;;;17.82;36.18
3464;BME280;3551;41.578;24.706;2023-05-02T08:28:40;91801.91;;;18.18;34.87
3464;BME280;3551;41.578;24.706;2023-05-02T08:31:06;91801.75;;;18.09;35.20
3464;BME280;3551;41.578;24.706;2023-05-02T08:33:33;91799.03;;;18.57;38.26
3464;BME280;3551;41.578;24.706;2023-05-02T08:36:01;91794.63;;;18.92;39.12
3464;BME280;3551;41.578;24.706;2023-05-02T08:38:35;91805.97;;;19.03;34.70
3464;BME280;3551;41.578;24.706;2023-05-02T08:41:02;91804.00;;;17.94;34.94
3464;BME280;3551;41.578;24.706;2023-05-02T08:43:28;91797.72;;;17.81;34.30
3464;BME280;3551;41.578;24.706;2023-05-02T08:45:57;91804.66;;;17.66;34.22
3464;BME280;3551;41.578;24.706;2023-05-02T08:48:25;91801.41;;;18.23;34.22
3464;BME280;3551;41.578;24.706;2023-05-02T08:50:52;91797.72;;;17.65;35.57
3464;BME280;3551;41.578;24.706;2023-05-02T08:53:20;91799.25;;;17.82;34.37
3464;BME280;3551;41.578;24.706;2023-05-02T08:55:51;91794.53;;;17.50;34.60
3464;BME280;3551;41.578;24.706;2023-05-02T08:58:18;91807.16;;;18.09;34.18
3464;BME280;3551;41.578;24.706;2023-05-02T09:00:45;91798.59;;;18.42;35.57
3464;BME280;3551;41.578;24.706;2023-05-02T09:03:17;91796.75;;;18.23;34.60
3464;BME280;3551;41.578;24.706;2023-05-02T09:05:49;91791.00;;;18.53;35.88
3464;BME280;3551;41.578;24.706;2023-05-02T09:08:21;91805.72;;;18.97;37.35
3464;BME280;3551;41.578;24.706;2023-05-02T09:10:49;91791.22;;;18.75;33.59
3464;BME280;3551;41.578;24.706;2023-05-02T09:13:31;91797.50;;;19.01;35.96
3464;BME280;3551;41.578;24.706;2023-05-02T09:15:59;91788.78;;;19.22;37.72
3464;BME280;3551;41.578;24.706;2023-05-02T09:18:27;91787.63;;;19.36;32.13
3464;BME280;3551;41.578;24.706;2023-05-02T09:20:54;91780.97;;;17.70;31.43
3464;BME280;3551;41.578;24.706;2023-05-02T09:23:31;91775.31;;;17.64;31.21
3464;BME280;3551;41.578;24.706;2023-05-02T09:25:59;91768.03;;;17.06;31.60
3464;BME280;3551;41.578;24.706;2023-05-02T09:28:38;91777.59;;;17.10;31.58
3464;BME280;3551;41.578;24.706;2023-05-02T09:31:06;91769.53;;;16.67;32.30
3464;BME280;3551;41.578;24.706;2023-05-02T09:33:34;91757.31;;;17.38;31.83
3464;BME280;3551;41.578;24.706;2023-05-02T09:36:00;91763.03;;;17.24;32.85
3464;BME280;3551;41.578;24.706;2023-05-02T09:38:27;91772.19;;;16.91;31.53
3464;BME280;3551;41.578;24.706;2023-05-02T09:40:55;91763.47;;;16.83;31.70
3464;BME280;3551;41.578;24.706;2023-05-02T09:43:22;91755.22;;;16.47;33.14
3464;BME280;3551;41.578;24.706;2023-05-02T09:45:55;91754.53;;;16.66;33.38
3464;BME280;3551;41.578;24.706;2023-05-02T09:48:22;91759.69;;;17.16;33.28
3464;BME280;3551;41.578;24.706;2023-05-02T09:50:49;91746.06;;;16.64;32.61
3464;BME280;3551;41.578;24.706;2023-05-02T09:53:16;91745.38;;;16.60;33.00
3464;BME280;3551;41.578;24.706;2023-05-02T09:55:42;91743.88;;;16.99;34.58
3464;BME280;3551;41.578;24.706;2023-05-02T09:58:20;91743.91;;;17.15;34.34
3464;BME280;3551;41.578;24.706;2023-05-02T10:00:47;91746.22;;;16.77;33.97
3464;BME280;3551;41.578;24.706;2023-05-02T10:03:15;91740.19;;;16.69;33.94
3464;BME280;3551;41.578;24.706;2023-05-02T10:05:43;91739.19;;;16.99;34.55
3464;BME280;3551;41.578;24.706;2023-05-02T10:08:10;91734.69;;;17.48;34.30
3464;BME280;3551;41.578;24.706;2023-05-02T10:10:38;91744.75;;;17.48;34.18
3464;BME280;3551;41.578;24.706;2023-05-02T10:13:05;91739.25;;;17.15;33.37
3464;BME280;3551;41.578;24.706;2023-05-02T10:15:35;91745.88;;;16.95;34.00
3464;BME280;3551;41.578;24.706;2023-05-02T10:18:04;91731.34;;;17.05;33.38
3464;BME280;3551;41.578;24.706;2023-05-02T10:20:35;91733.34;;;17.20;35.03
3464;BME280;3551;41.578;24.706;2023-05-02T10:23:03;91727.63;;;17.34;33.56
3464;BME280;3551;41.578;24.706;2023-05-02T10:25:30;91729.81;;;17.23;33.74
3464;BME280;3551;41.578;24.706;2023-05-02T10:27:58;91728.91;;;17.30;32.85
3464;BME280;3551;41.578;24.706;2023-05-02T10:30:30;91716.78;;;16.82;32.92
3464;BME280;3551;41.578;24.706;2023-05-02T10:32:58;91722.66;;;16.97;33.21
3464;BME280;3551;41.578;24.706;2023-05-02T10:35:25;91711.97;;;16.90;32.56
3464;BME280;3551;41.578;24.706;2023-05-02T10:37:52;91713.31;;;16.82;33.61
3464;BME280;3551;41.578;24.706;2023-05-02T10:40:19;91713.97;;;17.06;33.02
3464;BME280;3551;41.578;24.706;2023-05-02T10:42:46;91706.38;;;17.01;33.40
3464;BME280;3551;41.578;24.706;2023-05-02T10:45:28;91711.31;;;17.22;33.84
3464;BME280;3551;41.578;24.706;2023-05-02T10:50:45;91718.69;;;17.02;34.02
3464;BME280;3551;41.578;24.706;2023-05-02T10:56:11;91715.22;;;17.57;32.80
3464;BME280;3551;41.578;24.706;2023-05-02T10:58:38;91716.25;;;17.43;32.65
3464;BME280;3551;41.578;24.706;2023-05-02T11:04:01;91704.63;;;16.91;33.85
3464;BME280;3551;41.578;24.706;2023-05-02T11:06:30;91701.47;;;17.48;34.88
3464;BME280;3551;41.578;24.706;2023-05-02T11:11:43;91703.28;;;17.18;33.01
3464;BME280;3551;41.578;24.706;2023-05-02T11:14:11;91696.47;;;16.94;33.25
3464;BME280;3551;41.578;24.706;2023-05-02T11:19:21;91699.16;;;16.94;33.51
3464;BME280;3551;41.578;24.706;2023-05-02T11:21:49;91688.66;;;16.80;33.70
3464;BME280;3551;41.578;24.706;2023-05-02T11:24:36;91699.81;;;17.18;32.74
3464;BME280;3551;41.578;24.706;2023-05-02T11:29:51;91689.72;;;17.02;32.04
3464;BME280;3551;41.578;24.706;2023-05-02T11:32:18;91691.00;;;17.33;32.14
3464;BME280;3551;41.578;24.706;2023-05-02T11:34:46;91696.72;;;17.35;32.86
3464;BME280;3551;41.578;24.706;2023-05-02T11:37:18;91683.75;;;17.11;32.40
3464;BME280;3551;41.578;24.706;2023-05-02T11:39:45;91677.22;;;16.92;33.51
3464;BME280;3551;41.578;24.706;2023-05-02T11:42:26;91674.03;;;17.13;33.64
3464;BME280;3551;41.578;24.706;2023-05-02T11:44:56;91672.97;;;16.91;34.45
3464;BME280;3551;41.578;24.706;2023-05-02T11:47:24;91668.22;;;16.99;33.15
3464;BME280;3551;41.578;24.706;2023-05-02T11:49:54;91666.78;;;16.74;34.08
3464;BME280;3551;41.578;24.706;2023-05-02T11:52:30;91658.78;;;16.87;34.17
3464;BME280;3551;41.578;24.706;2023-05-02T11:55:04;91655.06;;;16.81;33.40
3464;BME280;3551;41.578;24.706;2023-05-02T11:57:32;91647.31;;;16.83;33.60
3464;BME280;3551;41.578;24.706;2023-05-02T11:59:59;91642.94;;;16.89;33.31
3464;BME280;3551;41.578;24.706;2023-05-02T12:02:35;91648.66;;;16.91;34.02
3464;BME280;3551;41.578;24.706;2023-05-02T12:05:02;91659.06;;;16.93;33.91
3464;BME280;3551;41.578;24.706;2023-05-02T12:07:35;91653.31;;;16.91;34.71
3464;BME280;3551;41.578;24.706;2023-05-02T12:10:02;91636.06;;;16.84;34.60
3464;BME280;3551;41.578;24.706;2023-05-02T12:12:29;91642.03;;;16.76;34.82
3464;BME280;3551;41.578;24.706;2023-05-02T12:14:56;91644.06;;;16.72;34.99
3464;BME280;3551;41.578;24.706;2023-05-02T12:17:23;91628.28;;;16.70;35.20
3464;BME280;3551;41.578;24.706;2023-05-02T12:19:50;91622.34;;;17.11;34.57
3464;BME280;3551;41.578;24.706;2023-05-02T12:22:17;91622.09;;;17.06;35.14
3464;BME280;3551;41.578;24.706;2023-05-02T12:24:45;91622.56;;;16.84;34.71
3464;BME280;3551;41.578;24.706;2023-05-02T12:27:13;91611.94;;;16.77;34.20
3464;BME280;3551;41.578;24.706;2023-05-02T12:29:40;91610.16;;;16.87;35.55
3464;BME280;3551;41.578;24.706;2023-05-02T12:32:07;91609.16;;;16.97;35.74
3464;BME280;3551;41.578;24.706;2023-05-02T12:34:35;91612.38;;;16.92;35.18
3464;BME280;3551;41.578;24.706;2023-05-02T12:37:02;91594.03;;;16.83;34.36
3464;BME280;3551;41.578;24.706;2023-05-02T12:39:34;91597.38;;;17.07;36.01
3464;BME280;3551;41.578;24.706;2023-05-02T12:42:09;91594.66;;;17.23;34.69
3464;BME280;3551;41.578;24.706;2023-05-02T12:44:36;91595.84;;;17.22;35.14
3464;BME280;3551;41.578;24.706;2023-05-02T12:47:03;91596.09;;;16.96;34.93
3464;BME280;3551;41.578;24.706;2023-05-02T12:49:30;91599.63;;;16.93;35.53
3464;BME280;3551;41.578;24.706;2023-05-02T12:51:58;91605.69;;;16.97;34.79
3464;BME280;3551;41.578;24.706;2023-05-02T12:54:25;91603.25;;;17.02;34.58
3464;BME280;3551;41.578;24.706;2023-05-02T12:56:53;91607.50;;;17.03;34.43
3464;BME280;3551;41.578;24.706;2023-05-02T12:59:28;91613.66;;;17.04;34.88
3464;BME280;3551;41.578;24.706;2023-05-02T13:01:55;91600.38;;;16.93;34.39
3464;BME280;3551;41.578;24.706;2023-05-02T13:04:21;91600.63;;;16.82;34.59
3464;BME280;3551;41.578;24.706;2023-05-02T13:06:58;91592.66;;;16.75;35.29
3464;BME280;3551;41.578;24.706;2023-05-02T13:09:25;91591.69;;;16.85;35.34
3464;BME280;3551;41.578;24.706;2023-05-02T13:11:52;91593.13;;;17.06;36.49
3464;BME280;3551;41.578;24.706;2023-05-02T13:14:19;91602.59;;;17.14;35.12
3464;BME280;3551;41.578;24.706;2023-05-02T13:16:47;91590.50;;;17.03;35.11
3464;BME280;3551;41.578;24.706;2023-05-02T13:19:17;91593.63;;;16.85;35.52
3464;BME280;3551;41.578;24.706;2023-05-02T13:21:44;91587.94;;;16.79;34.94
3464;BME280;3551;41.578;24.706;2023-05-02T13:24:11;91586.28;;;16.85;34.97
3464;BME280;3551;41.578;24.706;2023-05-02T13:26:39;91583.84;;;16.91;35.33
3464;BME280;3551;41.578;24.706;2023-05-02T13:29:05;91569.63;;;16.71;34.75
3464;BME280;3551;41.578;24.706;2023-05-02T13:31:33;91581.59;;;16.70;34.98
3464;BME280;3551;41.578;24.706;2023-05-02T13:34:02;91578.81;;;16.73;34.95